Time;durP1;ratioP1;P1;durP2;ratioP2;P2;SDS_P1;SDS_P2;PMS_P1;PMS_P2;Temp;Humidity;BMP_temperature;BMP_pressure;BME280_temperature;BME280_humidity;BME280_pressure;Samples;Min_cycle;Max_cycle;Signal;HPM_P1;HPM_P2
2023/04/07 00:00:25;;;;;;;13.50;10.40;;;9.70;99.90;;;;;;4993957;28;20489;-80
2023/04/07 00:02:52;;;;;;;16.63;11.80;;;9.80;99.90;;;;;;4995452;28;21080;-80
2023/04/07 00:05:19;;;;;;;13.50;12.03;;;9.90;99.90;;;;;;4996991;28;20524;-83
2023/04/07 00:07:46;;;;;;;15.50;12.80;;;9.90;99.90;;;;;;4995269;28;20462;-81
2023/04/07 00:10:21;;;;;;;12.33;10.30;;;9.90;99.90;;;;;;4993537;28;20462;-83
2023/04/07 00:12:48;;;;;;;16.40;13.00;;;10.00;99.90;;;;;;4994212;28;20470;-84
2023/04/07 00:15:15;;;;;;;12.47;11.17;;;9.90;99.90;;;;;;4989970;28;20489;-79
2023/04/07 00:17:42;;;;;;;15.40;11.60;;;9.80;99.90;;;;;;4991229;28;22127;-82
2023/04/07 00:20:09;;;;;;;14.20;11.60;;;9.80;99.90;;;;;;4992976;28;20493;-80
2023/04/07 00:22:35;;;;;;;15.10;11.73;;;9.80;99.90;;;;;;4995264;28;20512;-81
2023/04/07 00:25:02;;;;;;;15.70;11.80;;;9.80;99.90;;;;;;4993072;28;20489;-80
2023/04/07 00:27:29;;;;;;;15.20;11.77;;;9.60;99.90;;;;;;4992189;28;20453;-80
2023/04/07 00:29:55;;;;;;;15.70;12.00;;;9.70;99.90;;;;;;4990967;28;20470;-80
2023/04/07 00:32:22;;;;;;;13.40;12.00;;;9.90;99.90;;;;;;5008011;28;20465;-81
2023/04/07 00:34:49;;;;;;;13.60;11.53;;;9.70;99.90;;;;;;4993814;28;20482;-81
2023/04/07 00:37:15;;;;;;;17.27;10.90;;;9.80;99.90;;;;;;4990117;28;20465;-82
2023/04/07 00:39:42;;;;;;;13.77;11.80;;;9.90;99.90;;;;;;4993028;28;20525;-81
2023/04/07 00:42:09;;;;;;;18.37;13.10;;;9.90;99.90;;;;;;4993214;28;20581;-82
2023/04/07 00:44:35;;;;;;;13.87;11.00;;;9.90;99.90;;;;;;4992183;28;20481;-80
2023/04/07 00:47:02;;;;;;;13.67;11.20;;;10.00;99.90;;;;;;4993646;28;22135;-81
2023/04/07 00:49:30;;;;;;;16.20;13.27;;;10.10;99.90;;;;;;4988852;28;20498;-81
2023/04/07 00:51:57;;;;;;;13.80;12.40;;;10.10;99.90;;;;;;4993584;28;20462;-82
2023/04/07 00:54:24;;;;;;;14.77;12.80;;;10.10;99.90;;;;;;4992991;28;20470;-82
2023/04/07 00:56:54;;;;;;;14.20;12.57;;;10.10;99.90;;;;;;4995220;28;20485;-83
2023/04/07 00:59:21;;;;;;;15.70;12.47;;;10.00;99.90;;;;;;4994340;28;20462;-80
2023/04/07 01:02:23;;;;;;;14.97;11.53;;;10.30;99.90;;;;;;4993498;28;20478;-82
2023/04/07 01:05:11;;;;;;;15.70;12.57;;;10.30;99.90;;;;;;5005339;28;20545;-81
2023/04/07 01:07:51;;;;;;;13.23;11.83;;;10.30;99.90;;;;;;4996629;28;20529;-82
2023/04/07 01:10:44;;;;;;;13.23;11.83;;;10.30;99.90;;;;;;4964598;28;20462;-81
2023/04/07 01:13:50;;;;;;;15.70;11.17;;;10.00;99.90;;;;;;5008613;28;20462;-80
2023/04/07 01:16:26;;;;;;;13.30;11.57;;;9.90;99.90;;;;;;5009998;28;20458;-83
2023/04/07 01:19:00;;;;;;;14.77;12.90;;;10.40;99.90;;;;;;5009766;28;20454;-80
2023/04/07 01:21:27;;;;;;;17.03;15.33;;;10.30;99.90;;;;;;5006950;28;20485;-80
2023/04/07 01:24:05;;;;;;;12.33;11.00;;;10.00;99.90;;;;;;5005775;28;20480;-81
2023/04/07 01:26:35;;;;;;;15.43;11.13;;;10.10;99.90;;;;;;5003650;28;20511;-80
2023/04/07 01:29:02;;;;;;;13.83;11.50;;;10.00;99.90;;;;;;5002882;28;20458;-79
2023/04/07 01:31:29;;;;;;;13.07;11.20;;;10.00;99.90;;;;;;5001389;28;21723;-81
2023/04/07 01:33:59;;;;;;;13.27;11.87;;;10.20;99.90;;;;;;4993888;28;20482;-82
2023/04/07 01:36:30;;;;;;;14.20;12.60;;;10.20;99.90;;;;;;4996351;28;20458;-82
2023/04/07 01:38:59;;;;;;;13.43;11.97;;;10.40;99.90;;;;;;4997677;28;20733;-82
2023/04/07 01:44:06;;;;;;;12.13;10.43;;;10.10;99.90;;;;;;5579026;22;20505;-82
2023/04/07 01:46:36;;;;;;;11.97;10.77;;;10.10;99.90;;;;;;4996989;28;20458;-83
2023/04/07 01:49:04;;;;;;;14.23;11.10;;;10.10;99.90;;;;;;4982304;28;22774;-82
2023/04/07 01:51:32;;;;;;;13.63;12.23;;;10.40;99.90;;;;;;4991296;28;20478;-80
2023/04/07 01:54:01;;;;;;;12.47;11.13;;;10.70;99.90;;;;;;4988226;28;20777;-82
2023/04/07 01:56:28;;;;;;;17.00;11.37;;;10.60;99.90;;;;;;5005084;28;20462;-82
2023/04/07 01:58:54;;;;;;;13.27;11.97;;;10.40;99.90;;;;;;4991292;28;20532;-81
2023/04/07 02:01:21;;;;;;;10.30;9.30;;;10.30;99.90;;;;;;4989265;28;20493;-80
2023/04/07 02:04:07;;;;;;;11.70;10.50;;;10.30;99.90;;;;;;4987906;28;21372;-82
2023/04/07 02:06:47;;;;;;;14.67;13.27;;;10.30;99.90;;;;;;4988299;28;20491;-82
2023/04/07 02:09:20;;;;;;;12.33;10.73;;;10.30;99.90;;;;;;4993433;28;20459;-82
2023/04/07 02:11:50;;;;;;;11.33;10.03;;;10.20;99.90;;;;;;4992082;28;20552;-82
2023/04/07 02:14:19;;;;;;;12.10;10.90;;;10.20;99.90;;;;;;4987182;28;20470;-80
2023/04/07 02:16:46;;;;;;;11.63;10.43;;;10.20;99.90;;;;;;4999436;28;20468;-84
2023/04/07 02:19:14;;;;;;;14.50;12.17;;;10.20;99.90;;;;;;5023700;28;20454;-82
2023/04/07 02:21:43;;;;;;;14.27;12.03;;;10.20;99.90;;;;;;5004269;28;20508;-82
2023/04/07 02:24:10;;;;;;;14.70;13.13;;;10.20;99.90;;;;;;5011900;28;20651;-83
2023/04/07 02:26:37;;;;;;;15.50;12.40;;;10.20;99.90;;;;;;5012683;28;20846;-82
2023/04/07 02:29:04;;;;;;;16.20;12.53;;;10.20;99.90;;;;;;5020037;28;20529;-82
2023/04/07 02:31:31;;;;;;;13.77;12.00;;;10.30;99.90;;;;;;5016008;28;20475;-82
2023/04/07 02:33:58;;;;;;;14.50;13.00;;;10.20;99.90;;;;;;5014227;28;20475;-82
2023/04/07 02:36:26;;;;;;;17.93;14.90;;;10.20;99.90;;;;;;5024742;28;20469;-80
2023/04/07 02:38:52;;;;;;;16.07;14.17;;;10.30;99.90;;;;;;5016484;28;20473;-82
2023/04/07 02:41:20;;;;;;;16.93;15.13;;;10.20;99.90;;;;;;5014505;28;20481;-82
2023/04/07 02:43:46;;;;;;;15.80;13.53;;;10.20;99.90;;;;;;5008461;28;20574;-81
2023/04/07 02:46:13;;;;;;;18.20;14.90;;;10.20;99.90;;;;;;5006564;28;20497;-81
2023/04/07 02:48:41;;;;;;;19.37;16.90;;;10.20;99.90;;;;;;5008238;28;20510;-81
2023/04/07 02:51:08;;;;;;;22.20;16.83;;;10.20;99.90;;;;;;5018252;28;20457;-81
2023/04/07 02:53:36;;;;;;;23.37;16.37;;;10.20;99.90;;;;;;5009271;28;20478;-83
2023/04/07 02:56:03;;;;;;;19.30;15.93;;;10.20;99.90;;;;;;5014034;28;20466;-83
2023/04/07 02:58:29;;;;;;;17.57;14.30;;;10.20;99.90;;;;;;5013622;28;20469;-83
2023/04/07 03:00:56;;;;;;;19.43;15.23;;;10.30;99.90;;;;;;5008771;28;20485;-84
2023/04/07 03:03:23;;;;;;;18.37;15.47;;;10.20;99.90;;;;;;5016620;28;20482;-83
2023/04/07 03:05:50;;;;;;;20.43;16.13;;;10.30;99.90;;;;;;5022153;28;20559;-84
2023/04/07 03:08:17;;;;;;;20.57;14.97;;;10.20;99.90;;;;;;5011774;28;20457;-83
2023/04/07 03:10:43;;;;;;;25.00;16.53;;;10.30;99.90;;;;;;5013507;28;20458;-83
2023/04/07 03:13:11;;;;;;;19.67;16.00;;;10.20;99.90;;;;;;5008747;28;20854;-83
2023/04/07 03:15:38;;;;;;;20.27;14.30;;;10.20;99.90;;;;;;5009311;28;20470;-82
2023/04/07 03:18:05;;;;;;;23.77;17.63;;;10.20;99.90;;;;;;5014736;28;21228;-83
2023/04/07 03:20:32;;;;;;;18.63;16.63;;;10.20;99.90;;;;;;5010260;28;20571;-83
2023/04/07 03:22:59;;;;;;;21.03;16.60;;;10.20;99.90;;;;;;5018234;28;20461;-83
2023/04/07 03:25:26;;;;;;;23.23;16.13;;;10.20;99.90;;;;;;5009408;28;20462;-81
2023/04/07 03:27:53;;;;;;;23.00;16.70;;;10.20;99.90;;;;;;5013341;28;20450;-81
2023/04/07 03:30:20;;;;;;;23.07;16.47;;;10.20;99.90;;;;;;5008567;28;20665;-81
2023/04/07 03:32:47;;;;;;;23.03;17.33;;;10.20;99.90;;;;;;5017654;28;20458;-82
2023/04/07 03:35:14;;;;;;;27.87;17.77;;;10.20;99.90;;;;;;5013207;28;20583;-80
2023/04/07 03:37:40;;;;;;;24.30;17.03;;;10.20;99.90;;;;;;5013543;28;20795;-82
2023/04/07 03:40:07;;;;;;;23.50;17.50;;;10.20;99.90;;;;;;5005937;28;20485;-83
2023/04/07 03:42:34;;;;;;;24.23;17.97;;;10.20;99.90;;;;;;5005354;28;20485;-82
2023/04/07 03:45:01;;;;;;;22.10;16.80;;;10.30;99.90;;;;;;5018407;28;20544;-84
2023/04/07 03:47:28;;;;;;;23.43;17.33;;;10.30;99.90;;;;;;5021521;28;20584;-83
2023/04/07 03:49:55;;;;;;;21.27;15.87;;;10.20;99.90;;;;;;5013093;28;22161;-83
2023/04/07 03:52:21;;;;;;;21.47;16.40;;;10.30;99.90;;;;;;5009088;28;20541;-82
2023/04/07 03:54:48;;;;;;;22.80;17.77;;;10.30;99.90;;;;;;5011296;28;20481;-81
2023/04/07 03:57:15;;;;;;;21.73;15.77;;;10.30;99.90;;;;;;5011981;28;21007;-82
2023/04/07 03:59:42;;;;;;;24.00;17.20;;;10.30;99.90;;;;;;5008633;28;20541;-83
2023/04/07 04:02:08;;;;;;;22.07;16.80;;;10.30;99.90;;;;;;5012218;28;20478;-83
2023/04/07 04:04:35;;;;;;;20.20;15.47;;;10.30;99.90;;;;;;5013642;28;20508;-83
2023/04/07 04:07:02;;;;;;;22.10;16.43;;;10.20;99.90;;;;;;5011128;28;20447;-82
2023/04/07 04:09:29;;;;;;;21.20;15.93;;;10.20;99.90;;;;;;5010451;28;20558;-83
2023/04/07 04:11:56;;;;;;;26.83;16.20;;;10.20;99.90;;;;;;5012031;28;20938;-81
2023/04/07 04:14:24;;;;;;;19.77;14.90;;;10.20;99.90;;;;;;5010726;28;20476;-82
2023/04/07 04:16:57;;;;;;;21.17;15.80;;;10.10;99.90;;;;;;5013332;28;20458;-83
2023/04/07 04:19:35;;;;;;;19.77;14.90;;;10.10;99.90;;;;;;5020522;28;20430;-81
2023/04/07 04:22:04;;;;;;;22.90;16.90;;;10.10;99.90;;;;;;5017317;28;20481;-84
2023/04/07 04:24:40;;;;;;;18.00;14.00;;;10.20;99.90;;;;;;5014752;28;20568;-82
2023/04/07 04:27:15;;;;;;;23.70;17.30;;;10.10;99.90;;;;;;5014059;28;20489;-81
2023/04/07 04:29:45;;;;;;;18.73;15.70;;;10.20;99.90;;;;;;5013648;28;20449;-82
2023/04/07 04:32:38;;;;;;;20.83;15.80;;;10.30;99.90;;;;;;5012740;28;20493;-82
2023/04/07 04:35:19;;;;;;;19.67;14.40;;;10.20;99.90;;;;;;5008668;28;20831;-82
2023/04/07 04:37:46;;;;;;;21.30;14.67;;;10.20;99.90;;;;;;5015541;28;20482;-85
2023/04/07 04:40:22;;;;;;;20.93;15.03;;;10.20;99.90;;;;;;5014580;28;20462;-83
2023/04/07 04:42:53;;;;;;;20.30;16.13;;;10.20;99.90;;;;;;5017155;28;20450;-80
2023/04/07 04:45:28;;;;;;;20.73;15.40;;;10.20;99.90;;;;;;5020007;28;20471;-80
2023/04/07 04:48:09;;;;;;;20.57;15.50;;;10.20;99.90;;;;;;5023728;28;20527;-84
2023/04/07 04:50:43;;;;;;;23.20;16.50;;;10.20;99.90;;;;;;5026493;28;20446;-83
2023/04/07 04:53:17;;;;;;;22.83;16.87;;;10.20;99.90;;;;;;5025900;28;20450;-81
2023/04/07 04:56:00;;;;;;;;;;;;;;;;;;;;;
2023/04/07 04:58:45;;;;;;;19.40;15.00;;;10.20;99.90;;;;;;5248815;22;21457;-81
2023/04/07 05:01:33;;;;;;;20.67;16.70;;;10.10;99.90;;;;;;5024306;28;20512;-82
2023/04/07 05:04:00;;;;;;;21.10;16.07;;;10.20;99.90;;;;;;4997570;28;20466;-82
2023/04/07 05:06:32;;;;;;;25.57;15.47;;;10.20;99.90;;;;;;5016999;28;20470;-82
2023/04/07 05:09:26;;;;;;;25.40;15.73;;;10.10;99.90;;;;;;5048797;22;20585;-83
2023/04/07 05:12:06;;;;;;;21.23;15.60;;;10.10;99.90;;;;;;5013485;28;20492;-84
2023/04/07 05:14:55;;;;;;;21.00;14.87;;;10.10;99.90;;;;;;5013693;28;21083;-82
2023/04/07 05:17:42;;;;;;;20.33;13.87;;;10.20;99.90;;;;;;5007114;28;20467;-81
2023/04/07 05:20:24;;;;;;;18.30;13.37;;;10.20;99.90;;;;;;5016786;28;20438;-83
2023/04/07 05:22:57;;;;;;;17.10;14.23;;;10.20;99.90;;;;;;5009582;28;21209;-83
2023/04/07 05:25:32;;;;;;;19.37;13.03;;;10.20;99.90;;;;;;5012227;28;20454;-84
2023/04/07 05:28:03;;;;;;;16.23;13.20;;;10.20;99.90;;;;;;5012811;28;20474;-81
2023/04/07 05:30:42;;;;;;;15.30;12.23;;;10.10;99.90;;;;;;5014958;28;20453;-83
2023/04/07 05:33:14;;;;;;;20.70;11.63;;;10.20;99.90;;;;;;5014430;28;20516;-82
2023/04/07 05:36:05;;;;;;;16.57;11.60;;;10.10;99.90;;;;;;5011726;28;20530;-82
2023/04/07 05:39:00;;;;;;;13.33;10.90;;;10.10;99.90;;;;;;5001095;28;20463;-81
2023/04/07 05:41:38;;;;;;;14.43;9.93;;;10.10;99.90;;;;;;5009848;28;20482;-82
2023/04/07 05:44:21;;;;;;;16.17;11.13;;;10.10;99.90;;;;;;5009598;28;20477;-83
2023/04/07 05:47:13;;;;;;;15.37;10.50;;;10.10;99.90;;;;;;5005655;28;20478;-81
2023/04/07 05:49:46;;;;;;;14.77;11.00;;;10.10;99.90;;;;;;5007559;28;20558;-83
2023/04/07 05:52:23;;;;;;;10.90;8.90;;;10.10;99.90;;;;;;5010306;28;20451;-82
2023/04/07 05:54:57;;;;;;;12.60;9.60;;;10.20;99.90;;;;;;5008986;28;20493;-83
2023/04/07 05:57:41;;;;;;;12.70;9.07;;;10.10;99.90;;;;;;5019730;28;20463;-82
2023/04/07 06:00:18;;;;;;;11.30;9.03;;;10.20;99.90;;;;;;5009370;28;20458;-81
2023/04/07 06:03:02;;;;;;;11.20;8.40;;;10.10;99.90;;;;;;5010525;28;20504;-83
2023/04/07 06:05:42;;;;;;;15.50;11.37;;;10.10;99.90;;;;;;5010421;28;20458;-83
2023/04/07 06:08:21;;;;;;;13.00;9.10;;;10.10;99.90;;;;;;5003770;28;20461;-82
2023/04/07 06:11:07;;;;;;;10.70;9.60;;;10.10;99.90;;;;;;5015256;28;20442;-82
2023/04/07 06:20:21;;;;;;;11.03;8.10;;;10.10;99.90;;;;;;5663816;22;20918;-83
2023/04/07 06:23:10;;;;;;;8.87;7.33;;;10.20;99.90;;;;;;5033033;28;20460;-81
2023/04/07 06:26:47;;;;;;;11.33;8.40;;;10.20;99.90;;;;;;5269759;22;21174;-82
2023/04/07 06:29:27;;;;;;;10.00;7.10;;;10.20;99.90;;;;;;4999585;28;20463;-83
2023/04/07 06:35:16;;;;;;;9.00;7.30;;;10.10;99.90;;;;;;4990416;28;20471;-83
2023/04/07 06:41:15;;;;;;;9.27;7.60;;;10.10;99.90;;;;;;5241348;22;20520;-83
2023/04/07 06:44:00;;;;;;;8.20;6.33;;;10.10;99.90;;;;;;5020154;28;20474;-82
2023/04/07 06:46:49;;;;;;;7.23;5.83;;;10.10;99.90;;;;;;5014076;28;21027;-83
2023/04/07 06:49:35;;;;;;;7.17;5.80;;;10.10;99.90;;;;;;5037556;28;20459;-85
2023/04/07 06:52:19;;;;;;;10.03;6.20;;;10.20;99.90;;;;;;5024426;28;20473;-82
2023/04/07 06:54:58;;;;;;;8.33;5.80;;;10.10;99.90;;;;;;5020034;28;20478;-83
2023/04/07 06:57:59;;;;;;;6.33;5.00;;;10.10;99.90;;;;;;5003303;28;21173;-84
2023/04/07 07:00:36;;;;;;;7.20;5.60;;;10.20;99.90;;;;;;5026496;28;20623;-82
2023/04/07 07:03:16;;;;;;;5.47;4.87;;;10.20;99.90;;;;;;5015785;28;20565;-81
2023/04/07 07:06:09;;;;;;;6.80;4.83;;;10.20;99.90;;;;;;5020233;28;20459;-82
2023/04/07 07:09:15;;;;;;;7.07;5.30;;;10.10;99.90;;;;;;5025614;28;20457;-84
2023/04/07 07:12:14;;;;;;;6.63;5.00;;;10.20;99.90;;;;;;5016524;28;20489;-84
2023/04/07 07:14:58;;;;;;;8.37;4.47;;;10.20;99.90;;;;;;5011759;28;20468;-83
2023/04/07 07:17:50;;;;;;;6.30;4.53;;;10.30;99.90;;;;;;5010425;28;20505;-83
2023/04/07 07:20:50;;;;;;;6.60;4.53;;;10.20;99.90;;;;;;5038075;28;20556;-83
2023/04/07 07:23:27;;;;;;;5.80;4.30;;;10.30;99.90;;;;;;5017811;28;21051;-83
2023/04/07 07:26:11;;;;;;;9.10;5.43;;;10.30;99.90;;;;;;5012568;28;20462;-83
2023/04/07 07:28:52;;;;;;;5.00;4.50;;;10.20;99.90;;;;;;5014958;28;20471;-82
2023/04/07 07:31:30;;;;;;;6.20;4.53;;;10.10;99.90;;;;;;5028542;28;22534;-83
2023/04/07 07:34:12;;;;;;;7.53;3.87;;;10.20;99.90;;;;;;5052550;28;20472;-82
2023/04/07 07:36:55;;;;;;;7.00;5.40;;;10.10;99.90;;;;;;5038023;28;20780;-82
2023/04/07 07:39:28;;;;;;;5.80;4.70;;;10.10;99.90;;;;;;5050286;28;20467;-81
2023/04/07 07:42:10;;;;;;;7.97;5.77;;;10.10;99.90;;;;;;5036339;28;20485;-82
2023/04/07 07:44:49;;;;;;;6.90;4.97;;;10.10;99.90;;;;;;5039802;28;20476;-83
2023/04/07 07:47:20;;;;;;;6.10;4.70;;;10.10;99.90;;;;;;5008587;28;20483;-83
2023/04/07 07:50:03;;;;;;;6.80;5.73;;;10.10;99.90;;;;;;5029737;28;20436;-83
2023/04/07 07:52:49;;;;;;;6.80;5.40;;;10.20;99.90;;;;;;5018084;28;20457;-83
2023/04/07 07:55:43;;;;;;;5.20;4.17;;;10.20;99.90;;;;;;5015914;28;20433;-82
2023/04/07 07:58:30;;;;;;;6.07;4.90;;;10.30;99.90;;;;;;5039397;28;20450;-81
2023/04/07 08:01:15;;;;;;;9.23;5.20;;;10.30;99.90;;;;;;5018386;28;20454;-81
2023/04/07 08:03:57;;;;;;;7.57;5.10;;;10.40;99.90;;;;;;4994930;28;20558;-84
2023/04/07 08:06:52;;;;;;;5.80;4.80;;;10.40;99.90;;;;;;5023328;28;20544;-83
2023/04/07 08:09:41;;;;;;;6.93;5.20;;;10.40;99.90;;;;;;5031119;28;20491;-83
2023/04/07 08:12:26;;;;;;;6.07;5.03;;;10.40;99.90;;;;;;5011147;28;20461;-83
2023/04/07 08:15:06;;;;;;;5.70;4.83;;;10.50;99.90;;;;;;5020993;28;20484;-81
2023/04/07 08:18:12;;;;;;;7.97;5.57;;;10.50;99.90;;;;;;5010628;28;20511;-83
2023/04/07 08:20:41;;;;;;;7.83;5.80;;;10.60;99.90;;;;;;5018858;28;20544;-82
2023/04/07 08:23:13;;;;;;;6.37;5.50;;;10.60;99.90;;;;;;5014343;28;20481;-82
2023/04/07 08:25:42;;;;;;;6.50;5.30;;;10.50;99.90;;;;;;5028580;28;20481;-83
2023/04/07 08:28:16;;;;;;;7.70;5.37;;;10.40;99.90;;;;;;5027096;28;20501;-83
2023/04/07 08:30:58;;;;;;;8.03;5.67;;;10.50;99.90;;;;;;5010305;28;20461;-84
2023/04/07 08:33:36;;;;;;;7.80;6.07;;;10.40;99.90;;;;;;5011624;28;21077;-80
2023/04/07 08:36:52;;;;;;;5.87;5.27;;;10.40;99.90;;;;;;5026349;28;20495;-82
2023/04/07 08:39:39;;;;;;;6.63;5.40;;;10.40;99.90;;;;;;5000882;28;20464;-83
2023/04/07 08:42:39;;;;;;;6.30;5.10;;;10.50;99.90;;;;;;5014688;28;20516;-83
2023/04/07 08:48:16;;;;;;;6.50;4.80;;;10.50;99.90;;;;;;5026807;28;20468;-82
2023/04/07 08:51:22;;;;;;;6.20;4.80;;;10.50;99.90;;;;;;4997444;28;20902;-84
2023/04/07 08:54:17;;;;;;;10.40;5.50;;;10.50;99.90;;;;;;5047109;28;20471;-83
2023/04/07 08:56:58;;;;;;;6.70;5.30;;;10.60;99.90;;;;;;5048576;28;20461;-81
2023/04/07 08:59:35;;;;;;;8.27;5.30;;;10.50;99.90;;;;;;5037974;28;20883;-81
2023/04/07 09:02:19;;;;;;;8.93;5.50;;;10.60;99.90;;;;;;5027306;28;20497;-83
2023/04/07 09:04:52;;;;;;;8.03;5.60;;;10.60;99.90;;;;;;5035822;28;20488;-84
2023/04/07 09:07:35;;;;;;;8.70;4.97;;;10.70;99.90;;;;;;5028435;28;20692;-83
2023/04/07 09:10:27;;;;;;;6.83;5.60;;;10.70;99.90;;;;;;5013576;28;20453;-84
2023/04/07 09:13:05;;;;;;;6.93;5.40;;;10.70;99.90;;;;;;5014741;28;20462;-82
2023/04/07 09:16:03;;;;;;;6.53;5.60;;;10.70;99.90;;;;;;4977263;28;20480;-83
2023/04/07 09:18:49;;;;;;;7.10;5.80;;;10.80;99.90;;;;;;4981915;28;20462;-82
2023/04/07 09:21:44;;;;;;;5.90;5.00;;;10.80;99.90;;;;;;4990312;28;20567;-82
2023/04/07 09:24:46;;;;;;;;;;;;;;;;;;;;;
2023/04/07 09:27:30;;;;;;;8.80;5.50;;;10.90;99.90;;;;;;4996101;28;20491;-81
2023/04/07 09:30:20;;;;;;;8.57;5.10;;;10.90;99.90;;;;;;4978170;28;20493;-83
2023/04/07 09:36:28;;;;;;;7.80;5.53;;;10.90;99.90;;;;;;5021635;28;20465;-83
2023/04/07 09:39:24;;;;;;;6.43;5.03;;;11.00;99.90;;;;;;5014644;28;20556;-81
2023/04/07 09:42:12;;;;;;;7.47;5.87;;;11.00;99.90;;;;;;5005307;28;20469;-83
2023/04/07 09:45:12;;;;;;;8.57;4.73;;;11.00;99.90;;;;;;5021768;28;21070;-84
2023/04/07 09:47:55;;;;;;;6.83;5.90;;;11.00;99.90;;;;;;5006968;28;20456;-84
2023/04/07 09:50:38;;;;;;;16.53;12.17;;;11.00;99.90;;;;;;5033911;28;20984;-83
2023/04/07 09:53:37;;;;;;;20.30;14.97;;;10.90;99.90;;;;;;5018239;28;20483;-82
2023/04/07 09:56:10;;;;;;;8.47;7.30;;;11.00;99.90;;;;;;5015715;28;20471;-81
2023/04/07 09:58:55;;;;;;;11.50;8.87;;;11.00;99.90;;;;;;5025318;28;20503;-80
2023/04/07 10:01:45;;;;;;;6.70;6.07;;;11.00;99.90;;;;;;5027672;28;20534;-84
2023/04/07 10:04:22;;;;;;;9.70;5.63;;;11.10;99.90;;;;;;5027771;28;20465;-85
2023/04/07 10:06:59;;;;;;;7.87;6.00;;;11.10;99.90;;;;;;5034443;28;20491;-84
2023/04/07 10:09:41;;;;;;;6.90;5.10;;;11.20;99.90;;;;;;5049862;28;20453;-83
2023/04/07 10:12:30;;;;;;;7.13;5.87;;;11.20;99.90;;;;;;5051411;28;20473;-82
2023/04/07 10:15:14;;;;;;;7.47;5.80;;;11.20;99.90;;;;;;5028051;28;20529;-84
2023/04/07 10:17:58;;;;;;;7.70;6.10;;;11.20;99.90;;;;;;5037649;28;20509;-82
2023/04/07 10:20:38;;;;;;;8.40;6.03;;;11.20;99.90;;;;;;5025077;28;20477;-84
2023/04/07 10:24:19;;;;;;;8.53;6.73;;;11.10;99.90;;;;;;5023979;28;20484;-84
2023/04/07 10:27:25;;;;;;;8.00;6.27;;;11.30;99.90;;;;;;4982666;28;20472;-84
2023/04/07 10:30:08;;;;;;;10.40;6.77;;;11.40;99.90;;;;;;4998271;28;20465;-83
2023/04/07 10:33:11;;;;;;;7.40;5.97;;;11.30;99.90;;;;;;5032951;28;20513;-83
2023/04/07 10:36:12;;;;;;;9.50;7.40;;;11.20;99.90;;;;;;5021177;28;20487;-83
2023/04/07 10:39:24;;;;;;;9.07;7.60;;;11.20;99.90;;;;;;5007927;28;20462;-82
2023/04/07 10:42:03;;;;;;;10.23;7.80;;;11.20;99.90;;;;;;5003123;28;20539;-83
2023/04/07 10:44:40;;;;;;;11.10;8.20;;;11.20;99.90;;;;;;5008766;28;20469;-82
2023/04/07 10:47:27;;;;;;;11.07;8.77;;;11.20;99.90;;;;;;5017893;28;20921;-83
2023/04/07 10:50:20;;;;;;;9.83;8.10;;;11.20;99.90;;;;;;5021350;28;20452;-83
2023/04/07 10:53:21;;;;;;;10.13;7.70;;;11.30;99.90;;;;;;5025157;28;20461;-84
2023/04/07 10:56:00;;;;;;;10.73;7.53;;;11.40;99.90;;;;;;5020726;28;20901;-83
2023/04/07 10:58:36;;;;;;;10.93;8.30;;;11.30;99.90;;;;;;5013433;28;20972;-83
2023/04/07 11:01:27;;;;;;;10.53;8.00;;;11.30;99.90;;;;;;5025868;28;20473;-83
2023/04/07 11:04:10;;;;;;;10.50;7.20;;;11.20;99.90;;;;;;5041089;28;20484;-82
2023/04/07 11:06:49;;;;;;;10.33;8.50;;;11.10;99.90;;;;;;5015235;28;20549;-85
2023/04/07 11:09:26;;;;;;;13.67;8.30;;;11.00;99.90;;;;;;5010355;28;20493;-83
2023/04/07 11:12:30;;;;;;;12.13;8.70;;;11.00;99.90;;;;;;5039046;28;21229;-83
2023/04/07 11:15:24;;;;;;;12.23;8.23;;;11.00;99.90;;;;;;5020726;28;20465;-81
2023/04/07 11:18:18;;;;;;;12.60;7.87;;;11.20;99.90;;;;;;5038087;28;20461;-83
2023/04/07 11:20:54;;;;;;;10.30;7.50;;;11.20;99.90;;;;;;5040868;28;20509;-83
2023/04/07 11:23:26;;;;;;;11.80;7.83;;;11.30;99.90;;;;;;5011040;28;20481;-84
2023/04/07 11:26:11;;;;;;;12.00;8.57;;;11.40;99.90;;;;;;5019422;28;20449;-82
2023/04/07 11:28:46;;;;;;;12.90;9.23;;;11.40;99.90;;;;;;5019136;28;20467;-83
2023/04/07 11:31:33;;;;;;;10.87;7.33;;;11.60;99.90;;;;;;5028545;28;20576;-82
2023/04/07 11:34:10;;;;;;;10.90;7.80;;;11.60;99.90;;;;;;5022666;28;20478;-83
2023/04/07 11:36:50;;;;;;;13.87;7.90;;;11.70;99.90;;;;;;5028782;28;20479;-82
2023/04/07 11:39:26;;;;;;;12.20;7.67;;;11.70;99.90;;;;;;5004182;28;20459;-81
2023/04/07 11:42:41;;;;;;;10.47;7.90;;;11.70;99.90;;;;;;5034405;28;20473;-82
2023/04/07 11:45:33;;;;;;;11.10;8.33;;;11.60;99.90;;;;;;5017839;28;20543;-83
2023/04/07 11:48:27;;;;;;;9.93;8.53;;;11.60;99.90;;;;;;5016344;28;20462;-84
2023/04/07 11:51:17;;;;;;;11.20;7.73;;;11.60;99.90;;;;;;5017160;28;20469;-84
2023/04/07 11:54:01;;;;;;;13.40;9.00;;;11.70;99.90;;;;;;5013537;28;20580;-83
2023/04/07 11:56:48;;;;;;;10.10;8.27;;;11.70;99.90;;;;;;5010097;28;20453;-82
2023/04/07 11:59:28;;;;;;;9.70;7.13;;;11.70;99.90;;;;;;5014101;28;20547;-83
2023/04/07 12:02:02;;;;;;;11.83;7.47;;;11.80;99.90;;;;;;5018090;28;20457;-83
2023/04/07 12:04:59;;;;;;;9.60;7.27;;;12.00;99.90;;;;;;5016610;28;20485;-84
2023/04/07 12:07:32;;;;;;;11.23;7.57;;;12.00;99.90;;;;;;5010557;28;20938;-82
2023/04/07 12:10:28;;;;;;;7.77;6.97;;;12.00;99.90;;;;;;5016655;28;20479;-82
2023/04/07 12:13:18;;;;;;;9.87;7.47;;;11.90;99.90;;;;;;5008466;28;20457;-83
2023/04/07 12:16:10;;;;;;;10.07;7.20;;;11.90;99.90;;;;;;5000241;28;20473;-82
2023/04/07 12:19:04;;;;;;;11.83;7.43;;;11.90;99.90;;;;;;5022793;28;21071;-83
2023/04/07 12:22:24;;;;;;;9.97;8.60;;;12.00;99.90;;;;;;5022343;28;20469;-83
2023/04/07 12:25:52;;;;;;;;;;;;;;;;;;;;;
2023/04/07 12:28:55;;;;;;;8.57;7.10;;;12.00;99.90;;;;;;5033548;28;20481;-83
2023/04/07 12:31:38;;;;;;;7.43;6.70;;;12.00;99.90;;;;;;5029104;28;20968;-81
2023/04/07 12:34:41;;;;;;;8.40;7.20;;;11.90;99.90;;;;;;5024595;28;20460;-83
2023/04/07 12:37:16;;;;;;;8.17;6.50;;;11.90;99.90;;;;;;5027308;28;21400;-82
2023/04/07 12:39:57;;;;;;;7.73;6.07;;;11.80;99.90;;;;;;5026330;28;20495;-83
2023/04/07 12:42:27;;;;;;;9.17;7.10;;;11.80;99.90;;;;;;5041191;28;20481;-83
2023/04/07 12:45:31;;;;;;;11.90;8.07;;;11.90;99.90;;;;;;5014761;28;20535;-83
2023/04/07 12:48:05;;;;;;;15.00;6.87;;;11.80;99.90;;;;;;5019541;28;20456;-83
2023/04/07 12:50:38;;;;;;;12.30;7.97;;;11.80;99.90;;;;;;5026273;28;20938;-82
2023/04/07 12:56:11;;;;;;;9.80;7.60;;;11.80;99.90;;;;;;5006133;28;20771;-83
2023/04/07 12:58:40;;;;;;;12.50;6.93;;;11.80;99.90;;;;;;5038377;28;20449;-83
2023/04/07 13:01:17;;;;;;;7.63;6.20;;;11.80;99.90;;;;;;5032176;28;20467;-84
2023/04/07 13:04:01;;;;;;;13.33;8.23;;;12.00;99.90;;;;;;5020321;28;20491;-82
2023/04/07 13:06:41;;;;;;;9.87;7.50;;;12.00;99.90;;;;;;5037907;28;20468;-83
2023/04/07 13:09:16;;;;;;;13.07;9.37;;;11.80;99.90;;;;;;5021941;28;20518;-83
2023/04/07 13:12:01;;;;;;;13.30;9.60;;;11.80;99.90;;;;;;5018254;28;20453;-82
2023/04/07 13:14:59;;;;;;;13.40;9.37;;;11.80;99.90;;;;;;5018241;28;20477;-83
2023/04/07 13:17:35;;;;;;;11.90;8.73;;;11.70;99.90;;;;;;5021984;28;20476;-83
2023/04/07 13:20:19;;;;;;;10.20;8.50;;;11.80;99.90;;;;;;5025985;28;20503;-83
2023/04/07 13:22:55;;;;;;;13.80;8.83;;;11.70;99.90;;;;;;5023808;28;20919;-81
2023/04/07 13:25:26;;;;;;;14.90;8.83;;;11.70;99.90;;;;;;5041075;28;20479;-85
2023/04/07 13:27:59;;;;;;;12.43;8.83;;;11.70;99.90;;;;;;5025750;28;20485;-83
2023/04/07 13:30:36;;;;;;;11.97;8.77;;;11.80;99.90;;;;;;5028986;28;20450;-82
2023/04/07 13:33:15;;;;;;;12.20;8.20;;;11.80;99.90;;;;;;5034886;28;20461;-81
2023/04/07 13:35:58;;;;;;;13.67;9.60;;;12.00;99.90;;;;;;5031957;28;20445;-83
2023/04/07 13:38:38;;;;;;;9.90;8.10;;;12.20;99.90;;;;;;5060389;28;20440;-83
2023/04/07 13:41:25;;;;;;;10.57;8.60;;;12.30;99.90;;;;;;5037093;28;20461;-84
2023/04/07 13:44:26;;;;;;;11.33;9.10;;;12.50;99.90;;;;;;5042830;28;20502;-83
2023/04/07 13:47:19;;;;;;;11.60;8.17;;;12.60;99.90;;;;;;5046263;28;20445;-81
2023/04/07 13:49:55;;;;;;;8.97;7.47;;;12.80;99.90;;;;;;5037642;28;20472;-82
2023/04/07 13:52:27;;;;;;;10.43;7.60;;;12.80;99.90;;;;;;5032474;28;20467;-82
2023/04/07 13:55:00;;;;;;;8.60;7.17;;;12.80;99.90;;;;;;5035321;28;20469;-81
2023/04/07 13:57:35;;;;;;;9.23;7.63;;;12.70;99.90;;;;;;5060702;28;20517;-82
2023/04/07 14:00:21;;;;;;;8.37;6.93;;;12.80;99.90;;;;;;5035163;28;20448;-82
2023/04/07 14:02:57;;;;;;;8.90;6.97;;;12.90;99.90;;;;;;5044642;28;20434;-81
2023/04/07 14:05:43;;;;;;;10.10;6.10;;;13.10;99.90;;;;;;5036898;28;20480;-81
2023/04/07 14:08:52;;;;;;;9.80;6.83;;;13.00;99.90;;;;;;5042503;28;20441;-83